Avalon Airport
YMAV : now visible

Airfield :











YOU CAN JOIN US ON...

 
LOGIN :

Register | Disclaimer

   EN    FR    IT 

 









Legend :    VFR   Marginal VFR   IFR   Intensive IFR   Very Intensive IFR
Visi :
Ceiling :
>= 8 km
>= 3000ft
5 to 8 km
1000 to 3000 ft
1500m to 5 km
500 to 1000 ft
800 to 1500m
200 to 500 ft
< 800m
< 200 ft
Symbols :   Thunderstorms  Fog  Heavy snow  Heavy precipitations  Wind > 20 kt






- Airport Elevation : 35 ft
- IATA code : AVV


YMAV - Avalon

CURRENT METAR :
  • 220200Z AUTO 29014KT 9999 // SCT034 SCT041 SCT049 16/08 Q1012

EXPIRED METARs :
  • 220130Z AUTO 28017KT 9999 // SCT036 SCT049 BKN057 16/08 Q1012
  • 220100Z AUTO 27017KT 9999 // SCT028 BKN033 BKN042 16/08 Q1012
  • 220030Z AUTO 27016KT 9999 // BKN026 BKN032 BKN038 16/09 Q1012
  • 220000Z AUTO 30014KT 9999 // SCT026 SCT065 15/09 Q1012
  • 212330Z AUTO 30015KT 9999 // OVC026 14/08 Q1012 RF00.0/000.0

TAF AMD TAF YMAV
Valid from the 21 at 23:00 until the 23 at 00:00 UTC


212311Z 2123/2300 28015KT 9999 -SHRA BKN025
FM220300 27018KT 9999 -SHRA BKN030
FM220800 30011KT 9999 NSW SCT025
FM221300 28010KT 9999 -SHRA BKN025
FM221800 29012KT 9999 NSW SCT025
YMMM FIR / Oceania



MET'MAP, your aeronautical weather chart ! - Copyright ORBIFLY December 2007 - Disclaimer

ORBIFLY MET'MAP TEAM :

Programming & Development : Alexandra Zaïnal
Concept & original design : Baudouin d'Aumeries
Assistance for programming : Marc-Olivier Méhu
Technical & hardware support : Manuel Goepfert

Contact : metmap@orbifly.com




SOURCES & CREDITS :

   NOAA       Earth
Advisory